sensor_id;sensor_type;location;lat;lon;timestamp;P1;durP1;ratioP1;P2;durP2;ratioP2
36259;SDS011;22296;50.824;5.644;2023-07-13T00:01:32;1.27;;;0.77;;
36259;SDS011;22296;50.824;5.644;2023-07-13T00:03:59;1.15;;;0.60;;
36259;SDS011;22296;50.824;5.644;2023-07-13T00:06:26;3.38;;;1.05;;
36259;SDS011;22296;50.824;5.644;2023-07-13T00:08:56;1.58;;;0.82;;
36259;SDS011;22296;50.824;5.644;2023-07-13T00:11:23;1.90;;;0.70;;
36259;SDS011;22296;50.824;5.644;2023-07-13T00:13:50;1.67;;;0.90;;
36259;SDS011;22296;50.824;5.644;2023-07-13T00:16:17;1.38;;;0.80;;
36259;SDS011;22296;50.824;5.644;2023-07-13T00:18:46;1.67;;;0.70;;
36259;SDS011;22296;50.824;5.644;2023-07-13T00:21:13;1.65;;;0.70;;
36259;SDS011;22296;50.824;5.644;2023-07-13T00:23:41;2.35;;;0.95;;
36259;SDS011;22296;50.824;5.644;2023-07-13T00:26:10;2.10;;;0.85;;
36259;SDS011;22296;50.824;5.644;2023-07-13T00:28:39;2.08;;;0.68;;
36259;SDS011;22296;50.824;5.644;2023-07-13T00:31:06;1.42;;;0.80;;
36259;SDS011;22296;50.824;5.644;2023-07-13T00:33:35;2.80;;;0.85;;
36259;SDS011;22296;50.824;5.644;2023-07-13T00:36:02;1.38;;;0.70;;
36259;SDS011;22296;50.824;5.644;2023-07-13T00:38:30;1.48;;;0.63;;
36259;SDS011;22296;50.824;5.644;2023-07-13T00:40:56;2.22;;;0.80;;
36259;SDS011;22296;50.824;5.644;2023-07-13T00:43:25;2.08;;;0.80;;
36259;SDS011;22296;50.824;5.644;2023-07-13T00:48:21;2.15;;;0.77;;
36259;SDS011;22296;50.824;5.644;2023-07-13T00:50:53;2.00;;;0.70;;
36259;SDS011;22296;50.824;5.644;2023-07-13T00:53:24;2.50;;;0.90;;
36259;SDS011;22296;50.824;5.644;2023-07-13T00:55:53;1.20;;;0.60;;
36259;SDS011;22296;50.824;5.644;2023-07-13T00:58:22;1.30;;;0.65;;
36259;SDS011;22296;50.824;5.644;2023-07-13T01:00:50;1.95;;;0.93;;
36259;SDS011;22296;50.824;5.644;2023-07-13T01:03:18;1.48;;;0.55;;
36259;SDS011;22296;50.824;5.644;2023-07-13T01:09:21;1.80;;;0.65;;
36259;SDS011;22296;50.824;5.644;2023-07-13T01:11:48;1.83;;;0.80;;
36259;SDS011;22296;50.824;5.644;2023-07-13T01:14:15;1.58;;;0.80;;
36259;SDS011;22296;50.824;5.644;2023-07-13T01:16:43;1.52;;;0.80;;
36259;SDS011;22296;50.824;5.644;2023-07-13T01:21:43;1.83;;;0.65;;
36259;SDS011;22296;50.824;5.644;2023-07-13T01:24:10;1.63;;;0.73;;
36259;SDS011;22296;50.824;5.644;2023-07-13T01:26:36;1.83;;;0.90;;
36259;SDS011;22296;50.824;5.644;2023-07-13T01:29:06;1.88;;;0.70;;
36259;SDS011;22296;50.824;5.644;2023-07-13T01:31:36;2.42;;;0.90;;
36259;SDS011;22296;50.824;5.644;2023-07-13T01:34:02;2.22;;;0.80;;
36259;SDS011;22296;50.824;5.644;2023-07-13T01:36:29;1.90;;;0.70;;
36259;SDS011;22296;50.824;5.644;2023-07-13T01:38:58;1.17;;;0.57;;
36259;SDS011;22296;50.824;5.644;2023-07-13T01:41:25;1.88;;;0.80;;
36259;SDS011;22296;50.824;5.644;2023-07-13T01:43:52;1.42;;;0.75;;
36259;SDS011;22296;50.824;5.644;2023-07-13T01:46:19;2.40;;;1.10;;
36259;SDS011;22296;50.824;5.644;2023-07-13T01:48:49;2.15;;;0.75;;
36259;SDS011;22296;50.824;5.644;2023-07-13T01:51:17;1.42;;;0.80;;
36259;SDS011;22296;50.824;5.644;2023-07-13T01:53:46;2.13;;;1.00;;
36259;SDS011;22296;50.824;5.644;2023-07-13T01:56:13;1.93;;;0.93;;
36259;SDS011;22296;50.824;5.644;2023-07-13T01:58:40;2.22;;;0.73;;
36259;SDS011;22296;50.824;5.644;2023-07-13T02:01:06;1.25;;;0.75;;
36259;SDS011;22296;50.824;5.644;2023-07-13T02:03:33;2.13;;;0.80;;
36259;SDS011;22296;50.824;5.644;2023-07-13T02:06:00;2.15;;;0.80;;
36259;SDS011;22296;50.824;5.644;2023-07-13T02:08:27;1.48;;;0.70;;
36259;SDS011;22296;50.824;5.644;2023-07-13T02:10:54;2.70;;;0.90;;
36259;SDS011;22296;50.824;5.644;2023-07-13T02:13:21;2.65;;;0.80;;
36259;SDS011;22296;50.824;5.644;2023-07-13T02:15:50;2.65;;;0.90;;
36259;SDS011;22296;50.824;5.644;2023-07-13T02:18:17;1.63;;;0.80;;
36259;SDS011;22296;50.824;5.644;2023-07-13T02:20:44;1.05;;;0.77;;
36259;SDS011;22296;50.824;5.644;2023-07-13T02:23:11;2.78;;;1.15;;
36259;SDS011;22296;50.824;5.644;2023-07-13T02:25:38;1.40;;;0.80;;
36259;SDS011;22296;50.824;5.644;2023-07-13T02:28:07;2.25;;;1.00;;
36259;SDS011;22296;50.824;5.644;2023-07-13T02:30:34;2.50;;;1.05;;
36259;SDS011;22296;50.824;5.644;2023-07-13T02:33:01;2.75;;;0.70;;
36259;SDS011;22296;50.824;5.644;2023-07-13T02:35:28;1.65;;;0.70;;
36259;SDS011;22296;50.824;5.644;2023-07-13T02:40:24;3.20;;;0.82;;
36259;SDS011;22296;50.824;5.644;2023-07-13T02:42:51;2.42;;;0.90;;
36259;SDS011;22296;50.824;5.644;2023-07-13T02:45:17;1.90;;;0.75;;
36259;SDS011;22296;50.824;5.644;2023-07-13T02:47:44;2.50;;;0.93;;
36259;SDS011;22296;50.824;5.644;2023-07-13T02:50:11;2.47;;;1.10;;
36259;SDS011;22296;50.824;5.644;2023-07-13T02:52:38;3.10;;;1.13;;
36259;SDS011;22296;50.824;5.644;2023-07-13T02:55:05;2.28;;;0.90;;
36259;SDS011;22296;50.824;5.644;2023-07-13T02:57:32;4.65;;;1.17;;
36259;SDS011;22296;50.824;5.644;2023-07-13T03:00:00;5.25;;;1.05;;
36259;SDS011;22296;50.824;5.644;2023-07-13T03:02:32;2.67;;;1.20;;
36259;SDS011;22296;50.824;5.644;2023-07-13T03:04:59;3.45;;;1.08;;
36259;SDS011;22296;50.824;5.644;2023-07-13T03:07:27;3.45;;;1.63;;
36259;SDS011;22296;50.824;5.644;2023-07-13T03:09:55;3.63;;;1.40;;
36259;SDS011;22296;50.824;5.644;2023-07-13T03:12:27;3.65;;;1.05;;
36259;SDS011;22296;50.824;5.644;2023-07-13T03:14:54;2.30;;;1.10;;
36259;SDS011;22296;50.824;5.644;2023-07-13T03:17:21;3.28;;;1.40;;
36259;SDS011;22296;50.824;5.644;2023-07-13T03:19:49;3.33;;;1.17;;
36259;SDS011;22296;50.824;5.644;2023-07-13T03:22:17;2.30;;;1.00;;
36259;SDS011;22296;50.824;5.644;2023-07-13T03:24:45;3.03;;;1.10;;
36259;SDS011;22296;50.824;5.644;2023-07-13T03:27:12;2.47;;;1.20;;
36259;SDS011;22296;50.824;5.644;2023-07-13T03:29:42;2.55;;;1.10;;
36259;SDS011;22296;50.824;5.644;2023-07-13T03:32:10;3.47;;;1.42;;
36259;SDS011;22296;50.824;5.644;2023-07-13T03:34:37;3.78;;;1.48;;
36259;SDS011;22296;50.824;5.644;2023-07-13T03:37:04;1.92;;;1.20;;
36259;SDS011;22296;50.824;5.644;2023-07-13T03:39:35;4.57;;;1.58;;
36259;SDS011;22296;50.824;5.644;2023-07-13T03:42:02;2.47;;;1.25;;
36259;SDS011;22296;50.824;5.644;2023-07-13T03:44:29;2.10;;;1.10;;
36259;SDS011;22296;50.824;5.644;2023-07-13T03:46:56;3.20;;;1.25;;
36259;SDS011;22296;50.824;5.644;2023-07-13T03:49:23;2.15;;;1.40;;
36259;SDS011;22296;50.824;5.644;2023-07-13T03:51:50;3.28;;;1.33;;
36259;SDS011;22296;50.824;5.644;2023-07-13T03:54:19;3.40;;;1.27;;
36259;SDS011;22296;50.824;5.644;2023-07-13T03:56:46;2.38;;;1.10;;
36259;SDS011;22296;50.824;5.644;2023-07-13T03:59:15;3.23;;;1.40;;
36259;SDS011;22296;50.824;5.644;2023-07-13T04:01:43;3.75;;;1.23;;
36259;SDS011;22296;50.824;5.644;2023-07-13T04:04:11;5.10;;;1.50;;
36259;SDS011;22296;50.824;5.644;2023-07-13T04:06:38;3.13;;;1.40;;
36259;SDS011;22296;50.824;5.644;2023-07-13T04:09:05;4.78;;;1.30;;
36259;SDS011;22296;50.824;5.644;2023-07-13T04:11:33;2.50;;;1.30;;
36259;SDS011;22296;50.824;5.644;2023-07-13T04:14:00;2.78;;;1.30;;
36259;SDS011;22296;50.824;5.644;2023-07-13T04:16:26;3.33;;;1.20;;
36259;SDS011;22296;50.824;5.644;2023-07-13T04:18:54;3.42;;;1.20;;
36259;SDS011;22296;50.824;5.644;2023-07-13T04:21:29;3.75;;;1.30;;
36259;SDS011;22296;50.824;5.644;2023-07-13T04:23:57;2.92;;;1.20;;
36259;SDS011;22296;50.824;5.644;2023-07-13T04:26:24;2.30;;;1.25;;
36259;SDS011;22296;50.824;5.644;2023-07-13T04:28:51;3.38;;;1.45;;
36259;SDS011;22296;50.824;5.644;2023-07-13T04:31:18;2.58;;;1.20;;
36259;SDS011;22296;50.824;5.644;2023-07-13T04:33:45;4.53;;;1.60;;
36259;SDS011;22296;50.824;5.644;2023-07-13T04:36:14;2.33;;;1.10;;
36259;SDS011;22296;50.824;5.644;2023-07-13T04:38:42;3.85;;;1.45;;
36259;SDS011;22296;50.824;5.644;2023-07-13T04:41:09;3.92;;;1.48;;
36259;SDS011;22296;50.824;5.644;2023-07-13T04:43:37;3.67;;;1.40;;
36259;SDS011;22296;50.824;5.644;2023-07-13T04:46:07;3.72;;;1.30;;
36259;SDS011;22296;50.824;5.644;2023-07-13T04:48:38;2.97;;;1.10;;
36259;SDS011;22296;50.824;5.644;2023-07-13T04:51:04;2.40;;;1.08;;
36259;SDS011;22296;50.824;5.644;2023-07-13T04:53:32;3.78;;;1.50;;
36259;SDS011;22296;50.824;5.644;2023-07-13T04:56:01;2.55;;;1.13;;
36259;SDS011;22296;50.824;5.644;2023-07-13T04:58:29;3.67;;;1.20;;
36259;SDS011;22296;50.824;5.644;2023-07-13T05:01:00;2.75;;;1.10;;
36259;SDS011;22296;50.824;5.644;2023-07-13T05:03:29;4.07;;;1.38;;
36259;SDS011;22296;50.824;5.644;2023-07-13T05:05:57;2.75;;;1.42;;
36259;SDS011;22296;50.824;5.644;2023-07-13T05:08:26;2.67;;;0.90;;
36259;SDS011;22296;50.824;5.644;2023-07-13T05:10:53;4.03;;;1.40;;
36259;SDS011;22296;50.824;5.644;2023-07-13T05:13:20;2.85;;;1.13;;
36259;SDS011;22296;50.824;5.644;2023-07-13T05:15:55;3.05;;;1.40;;
36259;SDS011;22296;50.824;5.644;2023-07-13T05:18:23;3.88;;;1.20;;
36259;SDS011;22296;50.824;5.644;2023-07-13T05:21:06;4.05;;;1.48;;
36259;SDS011;22296;50.824;5.644;2023-07-13T05:23:35;1.90;;;0.98;;
36259;SDS011;22296;50.824;5.644;2023-07-13T05:26:03;3.90;;;1.10;;
36259;SDS011;22296;50.824;5.644;2023-07-13T05:28:34;3.25;;;1.55;;
36259;SDS011;22296;50.824;5.644;2023-07-13T05:31:02;2.63;;;0.98;;
36259;SDS011;22296;50.824;5.644;2023-07-13T05:33:29;2.72;;;1.23;;
36259;SDS011;22296;50.824;5.644;2023-07-13T05:35:56;4.45;;;1.40;;
36259;SDS011;22296;50.824;5.644;2023-07-13T05:38:23;4.15;;;1.30;;
36259;SDS011;22296;50.824;5.644;2023-07-13T05:40:50;3.38;;;1.40;;
36259;SDS011;22296;50.824;5.644;2023-07-13T05:43:17;2.22;;;1.20;;
36259;SDS011;22296;50.824;5.644;2023-07-13T05:45:44;2.15;;;1.15;;
36259;SDS011;22296;50.824;5.644;2023-07-13T05:48:10;3.15;;;1.10;;
36259;SDS011;22296;50.824;5.644;2023-07-13T05:50:37;3.80;;;1.30;;
36259;SDS011;22296;50.824;5.644;2023-07-13T05:53:04;5.82;;;1.60;;
36259;SDS011;22296;50.824;5.644;2023-07-13T05:55:31;3.30;;;1.38;;
36259;SDS011;22296;50.824;5.644;2023-07-13T05:57:59;3.10;;;1.30;;
36259;SDS011;22296;50.824;5.644;2023-07-13T06:00:27;3.60;;;1.30;;
36259;SDS011;22296;50.824;5.644;2023-07-13T06:02:53;4.50;;;1.48;;
36259;SDS011;22296;50.824;5.644;2023-07-13T06:05:20;4.20;;;1.50;;
36259;SDS011;22296;50.824;5.644;2023-07-13T06:07:47;3.80;;;1.45;;
36259;SDS011;22296;50.824;5.644;2023-07-13T06:10:14;4.00;;;1.92;;
36259;SDS011;22296;50.824;5.644;2023-07-13T06:12:40;4.07;;;1.67;;
36259;SDS011;22296;50.824;5.644;2023-07-13T06:15:07;7.68;;;1.63;;
36259;SDS011;22296;50.824;5.644;2023-07-13T06:17:34;6.05;;;1.70;;
36259;SDS011;22296;50.824;5.644;2023-07-13T06:20:01;4.05;;;1.50;;
36259;SDS011;22296;50.824;5.644;2023-07-13T06:22:28;5.25;;;1.90;;
36259;SDS011;22296;50.824;5.644;2023-07-13T06:24:55;4.65;;;1.50;;
36259;SDS011;22296;50.824;5.644;2023-07-13T06:27:22;5.30;;;1.77;;
36259;SDS011;22296;50.824;5.644;2023-07-13T06:29:49;5.10;;;1.60;;
36259;SDS011;22296;50.824;5.644;2023-07-13T06:32:18;4.47;;;1.50;;
36259;SDS011;22296;50.824;5.644;2023-07-13T06:34:45;5.70;;;1.52;;
36259;SDS011;22296;50.824;5.644;2023-07-13T06:37:12;5.15;;;1.67;;
36259;SDS011;22296;50.824;5.644;2023-07-13T06:39:39;5.20;;;1.30;;
36259;SDS011;22296;50.824;5.644;2023-07-13T06:42:05;4.32;;;1.70;;
36259;SDS011;22296;50.824;5.644;2023-07-13T06:44:33;4.13;;;1.42;;
36259;SDS011;22296;50.824;5.644;2023-07-13T06:47:00;3.25;;;1.58;;
36259;SDS011;22296;50.824;5.644;2023-07-13T06:49:26;4.28;;;1.67;;
36259;SDS011;22296;50.824;5.644;2023-07-13T06:51:53;4.43;;;1.55;;
36259;SDS011;22296;50.824;5.644;2023-07-13T06:54:20;5.15;;;2.08;;
36259;SDS011;22296;50.824;5.644;2023-07-13T06:56:47;6.45;;;1.73;;
36259;SDS011;22296;50.824;5.644;2023-07-13T06:59:14;5.45;;;1.85;;
36259;SDS011;22296;50.824;5.644;2023-07-13T07:01:40;5.40;;;2.00;;
36259;SDS011;22296;50.824;5.644;2023-07-13T07:04:07;5.00;;;1.80;;
36259;SDS011;22296;50.824;5.644;2023-07-13T07:06:35;3.97;;;1.65;;
36259;SDS011;22296;50.824;5.644;2023-07-13T07:09:01;6.18;;;1.90;;
36259;SDS011;22296;50.824;5.644;2023-07-13T07:11:28;3.88;;;1.75;;
36259;SDS011;22296;50.824;5.644;2023-07-13T07:13:55;5.90;;;1.70;;
36259;SDS011;22296;50.824;5.644;2023-07-13T07:16:24;4.70;;;1.63;;
36259;SDS011;22296;50.824;5.644;2023-07-13T07:21:18;5.05;;;1.60;;
36259;SDS011;22296;50.824;5.644;2023-07-13T07:23:45;3.53;;;1.80;;
36259;SDS011;22296;50.824;5.644;2023-07-13T07:26:12;4.85;;;1.70;;
36259;SDS011;22296;50.824;5.644;2023-07-13T07:28:39;4.78;;;1.58;;
36259;SDS011;22296;50.824;5.644;2023-07-13T07:31:09;5.88;;;1.75;;
36259;SDS011;22296;50.824;5.644;2023-07-13T07:33:39;4.28;;;1.42;;
36259;SDS011;22296;50.824;5.644;2023-07-13T07:36:06;4.57;;;1.50;;
36259;SDS011;22296;50.824;5.644;2023-07-13T07:38:36;3.63;;;1.35;;
36259;SDS011;22296;50.824;5.644;2023-07-13T07:41:03;4.32;;;1.38;;
36259;SDS011;22296;50.824;5.644;2023-07-13T07:43:34;3.80;;;1.63;;
36259;SDS011;22296;50.824;5.644;2023-07-13T07:46:01;3.40;;;1.50;;
36259;SDS011;22296;50.824;5.644;2023-07-13T07:48:33;5.40;;;1.50;;
36259;SDS011;22296;50.824;5.644;2023-07-13T07:51:00;3.38;;;1.60;;
36259;SDS011;22296;50.824;5.644;2023-07-13T07:53:26;4.45;;;1.73;;
36259;SDS011;22296;50.824;5.644;2023-07-13T07:55:53;4.43;;;1.80;;
36259;SDS011;22296;50.824;5.644;2023-07-13T07:58:23;3.65;;;1.52;;
36259;SDS011;22296;50.824;5.644;2023-07-13T08:00:52;3.25;;;1.63;;
36259;SDS011;22296;50.824;5.644;2023-07-13T08:03:22;3.28;;;1.65;;
36259;SDS011;22296;50.824;5.644;2023-07-13T08:05:52;5.57;;;1.80;;
36259;SDS011;22296;50.824;5.644;2023-07-13T08:08:23;3.45;;;1.73;;
36259;SDS011;22296;50.824;5.644;2023-07-13T08:10:50;4.03;;;1.70;;
36259;SDS011;22296;50.824;5.644;2023-07-13T08:13:21;3.58;;;1.92;;
36259;SDS011;22296;50.824;5.644;2023-07-13T08:15:47;4.15;;;1.70;;
36259;SDS011;22296;50.824;5.644;2023-07-13T08:18:16;5.07;;;1.60;;
36259;SDS011;22296;50.824;5.644;2023-07-13T08:20:43;5.68;;;1.90;;
36259;SDS011;22296;50.824;5.644;2023-07-13T08:23:11;3.17;;;1.60;;
36259;SDS011;22296;50.824;5.644;2023-07-13T08:25:37;4.53;;;1.70;;
36259;SDS011;22296;50.824;5.644;2023-07-13T08:28:04;5.05;;;1.90;;
36259;SDS011;22296;50.824;5.644;2023-07-13T08:30:31;4.88;;;1.98;;
36259;SDS011;22296;50.824;5.644;2023-07-13T08:32:58;3.38;;;1.58;;
36259;SDS011;22296;50.824;5.644;2023-07-13T08:35:25;4.35;;;1.45;;
36259;SDS011;22296;50.824;5.644;2023-07-13T08:37:52;3.83;;;1.70;;
36259;SDS011;22296;50.824;5.644;2023-07-13T08:40:19;6.57;;;1.75;;
36259;SDS011;22296;50.824;5.644;2023-07-13T08:42:53;5.25;;;1.75;;
36259;SDS011;22296;50.824;5.644;2023-07-13T08:48:29;6.25;;;2.00;;
36259;SDS011;22296;50.824;5.644;2023-07-13T08:51:11;8.55;;;2.17;;
36259;SDS011;22296;50.824;5.644;2023-07-13T08:54:00;5.43;;;2.20;;
36259;SDS011;22296;50.824;5.644;2023-07-13T08:56:30;4.30;;;2.13;;
36259;SDS011;22296;50.824;5.644;2023-07-13T08:59:06;4.57;;;1.75;;
36259;SDS011;22296;50.824;5.644;2023-07-13T09:04:33;4.47;;;1.70;;
36259;SDS011;22296;50.824;5.644;2023-07-13T09:10:03;5.43;;;1.85;;
36259;SDS011;22296;50.824;5.644;2023-07-13T09:18:02;4.22;;;1.90;;
36259;SDS011;22296;50.824;5.644;2023-07-13T09:20:35;4.53;;;1.50;;
36259;SDS011;22296;50.824;5.644;2023-07-13T09:23:11;4.05;;;1.55;;
36259;SDS011;22296;50.824;5.644;2023-07-13T09:25:41;4.70;;;1.92;;
36259;SDS011;22296;50.824;5.644;2023-07-13T09:33:30;2.72;;;1.60;;
36259;SDS011;22296;50.824;5.644;2023-07-13T09:35:58;4.60;;;1.67;;
36259;SDS011;22296;50.824;5.644;2023-07-13T09:38:27;3.13;;;1.45;;
36259;SDS011;22296;50.824;5.644;2023-07-13T09:41:17;4.72;;;1.55;;
36259;SDS011;22296;50.824;5.644;2023-07-13T09:44:06;4.30;;;1.60;;
36259;SDS011;22296;50.824;5.644;2023-07-13T09:46:39;3.45;;;1.50;;
36259;SDS011;22296;50.824;5.644;2023-07-13T09:49:12;5.25;;;1.55;;
36259;SDS011;22296;50.824;5.644;2023-07-13T09:51:42;4.45;;;1.45;;
36259;SDS011;22296;50.824;5.644;2023-07-13T09:54:17;4.45;;;1.83;;
36259;SDS011;22296;50.824;5.644;2023-07-13T09:56:45;4.15;;;1.63;;
36259;SDS011;22296;50.824;5.644;2023-07-13T09:59:18;6.82;;;1.90;;
36259;SDS011;22296;50.824;5.644;2023-07-13T10:01:47;4.28;;;1.90;;
36259;SDS011;22296;50.824;5.644;2023-07-13T10:04:18;3.78;;;1.60;;
36259;SDS011;22296;50.824;5.644;2023-07-13T10:06:46;5.18;;;1.92;;
36259;SDS011;22296;50.824;5.644;2023-07-13T10:09:16;4.80;;;1.55;;
36259;SDS011;22296;50.824;5.644;2023-07-13T10:11:43;4.15;;;1.35;;
36259;SDS011;22296;50.824;5.644;2023-07-13T10:14:18;4.43;;;1.55;;
36259;SDS011;22296;50.824;5.644;2023-07-13T10:16:50;3.90;;;1.70;;
36259;SDS011;22296;50.824;5.644;2023-07-13T10:19:25;2.88;;;1.40;;
36259;SDS011;22296;50.824;5.644;2023-07-13T10:22:01;3.28;;;1.35;;
36259;SDS011;22296;50.824;5.644;2023-07-13T10:24:38;4.22;;;1.48;;
36259;SDS011;22296;50.824;5.644;2023-07-13T10:30:21;3.83;;;1.60;;
36259;SDS011;22296;50.824;5.644;2023-07-13T10:32:50;3.10;;;1.30;;
36259;SDS011;22296;50.824;5.644;2023-07-13T10:35:17;3.13;;;1.50;;
36259;SDS011;22296;50.824;5.644;2023-07-13T10:43:35;5.82;;;1.70;;
36259;SDS011;22296;50.824;5.644;2023-07-13T10:46:06;2.17;;;1.17;;
36259;SDS011;22296;50.824;5.644;2023-07-13T10:48:37;3.08;;;1.30;;
36259;SDS011;22296;50.824;5.644;2023-07-13T10:51:06;4.13;;;1.70;;
36259;SDS011;22296;50.824;5.644;2023-07-13T10:53:35;4.80;;;1.58;;
36259;SDS011;22296;50.824;5.644;2023-07-13T10:56:05;3.95;;;1.55;;
36259;SDS011;22296;50.824;5.644;2023-07-13T10:58:47;4.55;;;1.58;;
36259;SDS011;22296;50.824;5.644;2023-07-13T11:01:53;4.00;;;1.40;;
36259;SDS011;22296;50.824;5.644;2023-07-13T11:04:46;5.05;;;1.95;;
36259;SDS011;22296;50.824;5.644;2023-07-13T11:09:56;2.83;;;1.27;;
36259;SDS011;22296;50.824;5.644;2023-07-13T11:15:26;3.85;;;1.55;;
36259;SDS011;22296;50.824;5.644;2023-07-13T11:17:57;2.97;;;1.42;;
36259;SDS011;22296;50.824;5.644;2023-07-13T11:20:31;3.35;;;1.25;;
36259;SDS011;22296;50.824;5.644;2023-07-13T11:25:36;3.10;;;1.50;;
36259;SDS011;22296;50.824;5.644;2023-07-13T11:30:38;3.92;;;1.33;;
36259;SDS011;22296;50.824;5.644;2023-07-13T11:35:37;3.40;;;1.20;;
36259;SDS011;22296;50.824;5.644;2023-07-13T11:38:21;3.25;;;1.50;;
36259;SDS011;22296;50.824;5.644;2023-07-13T11:40:51;3.90;;;1.30;;
36259;SDS011;22296;50.824;5.644;2023-07-13T11:43:22;2.53;;;1.20;;
36259;SDS011;22296;50.824;5.644;2023-07-13T11:45:52;3.75;;;1.40;;
36259;SDS011;22296;50.824;5.644;2023-07-13T11:48:23;3.45;;;1.30;;
36259;SDS011;22296;50.824;5.644;2023-07-13T11:50:56;1.63;;;1.20;;
36259;SDS011;22296;50.824;5.644;2023-07-13T11:53:27;3.40;;;1.52;;
36259;SDS011;22296;50.824;5.644;2023-07-13T11:55:56;3.13;;;1.50;;
36259;SDS011;22296;50.824;5.644;2023-07-13T11:58:24;3.57;;;1.33;;
36259;SDS011;22296;50.824;5.644;2023-07-13T12:00:55;4.22;;;1.45;;
36259;SDS011;22296;50.824;5.644;2023-07-13T12:03:25;3.95;;;1.60;;
36259;SDS011;22296;50.824;5.644;2023-07-13T12:06:02;4.30;;;1.60;;
36259;SDS011;22296;50.824;5.644;2023-07-13T12:08:49;2.47;;;1.00;;
36259;SDS011;22296;50.824;5.644;2023-07-13T12:11:16;4.55;;;1.40;;
36259;SDS011;22296;50.824;5.644;2023-07-13T12:13:44;3.72;;;1.20;;
36259;SDS011;22296;50.824;5.644;2023-07-13T12:16:15;4.03;;;1.42;;
36259;SDS011;22296;50.824;5.644;2023-07-13T12:19:00;2.90;;;1.20;;
36259;SDS011;22296;50.824;5.644;2023-07-13T12:21:31;3.35;;;1.15;;
36259;SDS011;22296;50.824;5.644;2023-07-13T12:24:00;3.70;;;1.52;;
36259;SDS011;22296;50.824;5.644;2023-07-13T12:26:30;2.88;;;1.27;;
36259;SDS011;22296;50.824;5.644;2023-07-13T12:28:59;3.33;;;1.45;;
36259;SDS011;22296;50.824;5.644;2023-07-13T12:31:35;2.08;;;1.42;;
36259;SDS011;22296;50.824;5.644;2023-07-13T12:34:08;2.85;;;1.20;;
36259;SDS011;22296;50.824;5.644;2023-07-13T12:36:36;2.67;;;1.40;;
36259;SDS011;22296;50.824;5.644;2023-07-13T12:44:56;2.58;;;1.30;;
36259;SDS011;22296;50.824;5.644;2023-07-13T12:47:47;3.30;;;1.33;;
36259;SDS011;22296;50.824;5.644;2023-07-13T12:50:17;2.65;;;1.77;;
36259;SDS011;22296;50.824;5.644;2023-07-13T12:52:50;1.85;;;1.25;;
36259;SDS011;22296;50.824;5.644;2023-07-13T12:55:21;3.80;;;1.15;;
36259;SDS011;22296;50.824;5.644;2023-07-13T12:57:51;2.40;;;1.00;;
36259;SDS011;22296;50.824;5.644;2023-07-13T13:03:02;2.45;;;1.15;;
36259;SDS011;22296;50.824;5.644;2023-07-13T13:05:56;4.60;;;1.40;;
36259;SDS011;22296;50.824;5.644;2023-07-13T13:08:24;1.92;;;1.00;;
36259;SDS011;22296;50.824;5.644;2023-07-13T13:10:51;2.67;;;1.02;;
36259;SDS011;22296;50.824;5.644;2023-07-13T13:13:18;2.22;;;1.10;;
36259;SDS011;22296;50.824;5.644;2023-07-13T13:15:45;2.53;;;1.05;;
36259;SDS011;22296;50.824;5.644;2023-07-13T13:18:15;2.45;;;1.30;;
36259;SDS011;22296;50.824;5.644;2023-07-13T13:20:44;2.00;;;0.98;;
36259;SDS011;22296;50.824;5.644;2023-07-13T13:23:13;4.07;;;1.13;;
36259;SDS011;22296;50.824;5.644;2023-07-13T13:25:42;2.42;;;1.20;;
36259;SDS011;22296;50.824;5.644;2023-07-13T13:28:19;1.95;;;0.90;;
36259;SDS011;22296;50.824;5.644;2023-07-13T13:30:48;2.13;;;1.30;;
36259;SDS011;22296;50.824;5.644;2023-07-13T13:33:17;2.22;;;1.13;;
36259;SDS011;22296;50.824;5.644;2023-07-13T13:35:47;2.30;;;0.93;;
36259;SDS011;22296;50.824;5.644;2023-07-13T13:38:14;2.40;;;0.95;;
36259;SDS011;22296;50.824;5.644;2023-07-13T13:40:43;1.80;;;0.80;;
36259;SDS011;22296;50.824;5.644;2023-07-13T13:43:18;2.40;;;1.00;;
36259;SDS011;22296;50.824;5.644;2023-07-13T13:45:47;2.22;;;0.90;;
36259;SDS011;22296;50.824;5.644;2023-07-13T13:48:15;3.35;;;1.10;;
36259;SDS011;22296;50.824;5.644;2023-07-13T13:50:44;1.90;;;1.00;;
36259;SDS011;22296;50.824;5.644;2023-07-13T13:53:11;2.15;;;0.80;;
36259;SDS011;22296;50.824;5.644;2023-07-13T13:55:40;1.65;;;1.00;;
36259;SDS011;22296;50.824;5.644;2023-07-13T13:58:08;1.17;;;1.00;;
36259;SDS011;22296;50.824;5.644;2023-07-13T14:00:39;2.58;;;1.13;;
36259;SDS011;22296;50.824;5.644;2023-07-13T14:03:13;2.70;;;1.20;;
36259;SDS011;22296;50.824;5.644;2023-07-13T14:05:43;2.17;;;1.10;;
36259;SDS011;22296;50.824;5.644;2023-07-13T14:08:20;2.17;;;1.08;;
36259;SDS011;22296;50.824;5.644;2023-07-13T14:10:48;2.08;;;0.98;;
36259;SDS011;22296;50.824;5.644;2023-07-13T14:13:22;3.40;;;1.08;;
36259;SDS011;22296;50.824;5.644;2023-07-13T14:15:55;2.75;;;0.90;;
36259;SDS011;22296;50.824;5.644;2023-07-13T14:18:22;4.47;;;1.20;;
36259;SDS011;22296;50.824;5.644;2023-07-13T14:20:50;3.90;;;1.50;;
36259;SDS011;22296;50.824;5.644;2023-07-13T14:23:19;2.72;;;1.00;;
36259;SDS011;22296;50.824;5.644;2023-07-13T14:25:46;2.28;;;0.90;;
36259;SDS011;22296;50.824;5.644;2023-07-13T14:28:23;2.70;;;1.20;;
36259;SDS011;22296;50.824;5.644;2023-07-13T14:30:53;2.45;;;1.13;;
36259;SDS011;22296;50.824;5.644;2023-07-13T14:33:21;2.92;;;1.10;;
36259;SDS011;22296;50.824;5.644;2023-07-13T14:35:48;2.13;;;1.20;;
36259;SDS011;22296;50.824;5.644;2023-07-13T14:38:19;2.33;;;1.10;;
36259;SDS011;22296;50.824;5.644;2023-07-13T14:40:47;2.67;;;1.00;;
36259;SDS011;22296;50.824;5.644;2023-07-13T14:43:14;1.73;;;1.00;;
36259;SDS011;22296;50.824;5.644;2023-07-13T14:45:43;2.10;;;1.05;;
36259;SDS011;22296;50.824;5.644;2023-07-13T14:48:22;2.85;;;1.08;;
36259;SDS011;22296;50.824;5.644;2023-07-13T14:50:54;2.35;;;1.02;;
36259;SDS011;22296;50.824;5.644;2023-07-13T14:53:24;1.70;;;1.10;;
36259;SDS011;22296;50.824;5.644;2023-07-13T14:55:52;2.03;;;1.05;;
36259;SDS011;22296;50.824;5.644;2023-07-13T14:58:19;2.05;;;1.02;;
36259;SDS011;22296;50.824;5.644;2023-07-13T15:00:47;3.20;;;1.35;;
36259;SDS011;22296;50.824;5.644;2023-07-13T15:03:19;1.95;;;1.10;;
36259;SDS011;22296;50.824;5.644;2023-07-13T15:05:50;2.13;;;1.10;;
36259;SDS011;22296;50.824;5.644;2023-07-13T15:08:17;2.85;;;1.08;;
36259;SDS011;22296;50.824;5.644;2023-07-13T15:10:44;2.20;;;1.10;;
36259;SDS011;22296;50.824;5.644;2023-07-13T15:13:18;1.90;;;1.10;;
36259;SDS011;22296;50.824;5.644;2023-07-13T15:15:47;3.20;;;1.10;;
36259;SDS011;22296;50.824;5.644;2023-07-13T15:18:19;2.88;;;1.00;;
36259;SDS011;22296;50.824;5.644;2023-07-13T15:20:49;2.15;;;0.82;;
36259;SDS011;22296;50.824;5.644;2023-07-13T15:23:17;3.27;;;1.13;;
36259;SDS011;22296;50.824;5.644;2023-07-13T15:25:44;1.75;;;1.10;;
36259;SDS011;22296;50.824;5.644;2023-07-13T15:28:14;2.80;;;1.17;;
36259;SDS011;22296;50.824;5.644;2023-07-13T15:30:43;2.45;;;1.25;;
36259;SDS011;22296;50.824;5.644;2023-07-13T15:33:14;1.50;;;1.00;;
36259;SDS011;22296;50.824;5.644;2023-07-13T15:35:45;1.67;;;1.00;;
36259;SDS011;22296;50.824;5.644;2023-07-13T15:38:16;2.58;;;1.13;;
36259;SDS011;22296;50.824;5.644;2023-07-13T15:40:49;1.63;;;1.02;;
36259;SDS011;22296;50.824;5.644;2023-07-13T15:43:17;1.92;;;1.05;;
36259;SDS011;22296;50.824;5.644;2023-07-13T15:45:45;5.20;;;1.33;;
36259;SDS011;22296;50.824;5.644;2023-07-13T15:48:20;2.13;;;1.20;;
36259;SDS011;22296;50.824;5.644;2023-07-13T15:50:50;2.38;;;1.20;;
36259;SDS011;22296;50.824;5.644;2023-07-13T15:53:39;2.22;;;1.00;;
36259;SDS011;22296;50.824;5.644;2023-07-13T15:56:12;3.20;;;1.43;;
36259;SDS011;22296;50.824;5.644;2023-07-13T15:58:44;2.88;;;1.05;;
36259;SDS011;22296;50.824;5.644;2023-07-13T16:01:12;2.55;;;1.20;;
36259;SDS011;22296;50.824;5.644;2023-07-13T16:03:40;3.03;;;1.25;;
36259;SDS011;22296;50.824;5.644;2023-07-13T16:06:15;2.72;;;1.40;;